OKALK EKVG-LKPR
Flight info
| Callsign | OKALK |
|---|---|
| Flight time | 2h 16m |
| Altitude | 49000 |
| Route | EKVG/12 N0411F350 ODEV2W ODEVA DCT GOLOP GOLO5R LKPR/30 |
| Aircraft | GLEX/L-SABDFGRWZ/S |
Departure
| Time | 2026-05-06 15:25 |
|---|---|
| Airport | Vágar Airport (EKVG) |
Arrival
| Time | 2026-05-06 17:42 |
|---|---|
| Airport | Václav Havel Airport Prague (LKPR) |
| Time | Latitude | Longitude | Altitude | Speed | Heading |
|---|---|---|---|---|---|
| 2026-05-06 15:18 | 62.06703 | -7.28007 | 263 ft | 0 kts | 64° |
| 2026-05-06 15:21 | 62.06690 | -7.27979 | 262 ft | 7 kts | 182° |
| 2026-05-06 15:22 | 62.06626 | -7.28063 | 262 ft | 15 kts | 203° |
| 2026-05-06 15:22 | 62.06507 | -7.28118 | 262 ft | 20 kts | 200° |
| 2026-05-06 15:22 | 62.06508 | -7.28333 | 262 ft | 19 kts | 298° |
| 2026-05-06 15:22 | 62.06580 | -7.28635 | 266 ft | 26 kts | 293° |
| 2026-05-06 15:23 | 62.06654 | -7.28979 | 270 ft | 9 kts | 295° |
| 2026-05-06 15:23 | 62.06675 | -7.28978 | 270 ft | 5 kts | 66° |
| 2026-05-06 15:23 | 62.06636 | -7.28856 | 270 ft | 11 kts | 118° |
| 2026-05-06 15:23 | 62.06633 | -7.28845 | 269 ft | 0 kts | 119° |
| 2026-05-06 15:24 | 62.06614 | -7.28766 | 268 ft | 27 kts | 117° |
| 2026-05-06 15:25 | 62.06409 | -7.27953 | 262 ft | 96 kts | 117° |
| 2026-05-06 15:25 | 62.06004 | -7.26311 | 273 ft | 148 kts | 115° |
| 2026-05-06 15:25 | 62.05506 | -7.24306 | 821 ft | 151 kts | 114° |
| 2026-05-06 15:25 | 62.04982 | -7.22238 | 1314 ft | 172 kts | 124° |
| 2026-05-06 15:26 | 62.03880 | -7.20853 | 1733 ft | 200 kts | 167° |
| 2026-05-06 15:26 | 62.02438 | -7.21347 | 2280 ft | 221 kts | 200° |
| 2026-05-06 15:26 | 62.01012 | -7.22827 | 2880 ft | 236 kts | 200° |
| 2026-05-06 15:26 | 61.99343 | -7.23163 | 3401 ft | 247 kts | 171° |
| 2026-05-06 15:27 | 61.97662 | -7.22283 | 4032 ft | 254 kts | 157° |
| 2026-05-06 15:27 | 61.96040 | -7.20304 | 4623 ft | 283 kts | 138° |
| 2026-05-06 15:27 | 61.94669 | -7.17095 | 5687 ft | 300 kts | 122° |
| 2026-05-06 15:27 | 61.93808 | -7.12931 | 6770 ft | 318 kts | 103° |
| 2026-05-06 15:28 | 61.93458 | -7.08215 | 7835 ft | 337 kts | 96° |
| 2026-05-06 15:28 | 61.93125 | -7.03076 | 9024 ft | 356 kts | 97° |
| 2026-05-06 15:28 | 61.92771 | -6.97802 | 10250 ft | 373 kts | 96° |
| 2026-05-06 15:28 | 61.92435 | -6.92147 | 11448 ft | 390 kts | 96° |
| 2026-05-06 15:29 | 61.92088 | -6.86314 | 12671 ft | 406 kts | 96° |
| 2026-05-06 15:29 | 61.91685 | -6.80253 | 13928 ft | 422 kts | 97° |
| 2026-05-06 15:29 | 61.91260 | -6.73977 | 15084 ft | 437 kts | 97° |
| 2026-05-06 15:29 | 61.90839 | -6.67491 | 16276 ft | 451 kts | 99° |
| 2026-05-06 15:30 | 61.89953 | -6.60932 | 17500 ft | 463 kts | 112° |
| 2026-05-06 15:30 | 61.88504 | -6.54747 | 18717 ft | 473 kts | 122° |
| 2026-05-06 15:30 | 61.86616 | -6.48956 | 19820 ft | 483 kts | 128° |
| 2026-05-06 15:30 | 61.84670 | -6.43065 | 20869 ft | 494 kts | 126° |
| 2026-05-06 15:31 | 61.82735 | -6.36963 | 21883 ft | 500 kts | 127° |
| 2026-05-06 15:31 | 61.80725 | -6.30904 | 22844 ft | 509 kts | 129° |
| 2026-05-06 15:31 | 61.79295 | -6.26774 | 23527 ft | 516 kts | 129° |
| 2026-05-06 15:32 | 61.74421 | -6.11949 | 25556 ft | 538 kts | 127° |
| 2026-05-06 15:32 | 61.72981 | -6.07595 | 26162 ft | 536 kts | 128° |
| 2026-05-06 15:32 | 61.70798 | -6.01273 | 27087 ft | 529 kts | 129° |
| 2026-05-06 15:32 | 61.68641 | -5.94964 | 28031 ft | 531 kts | 128° |
| 2026-05-06 15:33 | 61.66501 | -5.88445 | 29028 ft | 531 kts | 127° |
| 2026-05-06 15:33 | 61.64414 | -5.82177 | 29771 ft | 530 kts | 128° |
| 2026-05-06 15:33 | 61.62224 | -5.75848 | 30429 ft | 529 kts | 129° |
| 2026-05-06 15:33 | 61.60070 | -5.69581 | 31030 ft | 528 kts | 128° |
| 2026-05-06 15:34 | 61.57959 | -5.63279 | 31646 ft | 526 kts | 127° |
| 2026-05-06 15:34 | 61.55848 | -5.57045 | 32273 ft | 524 kts | 128° |
| 2026-05-06 15:34 | 61.53703 | -5.50863 | 32919 ft | 522 kts | 128° |
| 2026-05-06 15:34 | 61.51611 | -5.44807 | 33566 ft | 521 kts | 128° |
| 2026-05-06 15:35 | 61.49481 | -5.38561 | 34206 ft | 520 kts | 127° |
| 2026-05-06 15:35 | 61.47370 | -5.32423 | 34764 ft | 518 kts | 128° |
| 2026-05-06 15:35 | 61.45252 | -5.26349 | 35334 ft | 517 kts | 128° |
| 2026-05-06 15:35 | 61.43109 | -5.20186 | 35929 ft | 517 kts | 128° |
| 2026-05-06 15:36 | 61.41001 | -5.14099 | 36529 ft | 516 kts | 128° |
| 2026-05-06 15:36 | 61.38890 | -5.08046 | 37143 ft | 515 kts | 128° |
| 2026-05-06 15:36 | 61.36767 | -5.01999 | 37728 ft | 515 kts | 128° |
| 2026-05-06 15:36 | 61.34651 | -4.95963 | 38243 ft | 516 kts | 128° |
| 2026-05-06 15:37 | 61.32532 | -4.89925 | 38756 ft | 516 kts | 128° |
| 2026-05-06 15:37 | 61.30408 | -4.83905 | 39179 ft | 515 kts | 128° |
| 2026-05-06 15:37 | 61.28284 | -4.77903 | 39609 ft | 514 kts | 128° |
| 2026-05-06 15:37 | 61.26167 | -4.71925 | 40049 ft | 513 kts | 128° |
| 2026-05-06 15:38 | 61.24056 | -4.65984 | 40493 ft | 511 kts | 128° |
| 2026-05-06 15:38 | 61.21949 | -4.60071 | 40954 ft | 508 kts | 128° |
| 2026-05-06 15:38 | 61.19851 | -4.54198 | 41408 ft | 505 kts | 128° |
| 2026-05-06 15:38 | 61.17763 | -4.48365 | 41893 ft | 502 kts | 128° |
| 2026-05-06 15:39 | 61.15684 | -4.42576 | 42305 ft | 500 kts | 128° |
| 2026-05-06 15:39 | 61.13584 | -4.36742 | 42674 ft | 498 kts | 128° |
| 2026-05-06 15:39 | 61.11517 | -4.31013 | 43045 ft | 496 kts | 128° |
| 2026-05-06 15:39 | 61.09442 | -4.25273 | 43430 ft | 493 kts | 128° |
| 2026-05-06 15:40 | 61.07378 | -4.19582 | 43763 ft | 492 kts | 128° |
| 2026-05-06 15:40 | 61.05321 | -4.13924 | 44015 ft | 491 kts | 128° |
| 2026-05-06 15:40 | 61.03266 | -4.08285 | 44273 ft | 491 kts | 128° |
| 2026-05-06 15:40 | 61.01212 | -4.02658 | 44542 ft | 489 kts | 128° |
| 2026-05-06 15:41 | 60.99175 | -3.97097 | 44803 ft | 488 kts | 128° |
| 2026-05-06 15:41 | 60.97122 | -3.91504 | 45065 ft | 486 kts | 128° |
| 2026-05-06 15:41 | 60.95084 | -3.85964 | 45319 ft | 484 kts | 128° |
| 2026-05-06 15:41 | 60.93054 | -3.80458 | 45570 ft | 481 kts | 129° |
| 2026-05-06 15:42 | 60.91006 | -3.74919 | 45829 ft | 478 kts | 129° |
| 2026-05-06 15:42 | 60.89019 | -3.69556 | 46072 ft | 475 kts | 129° |
| 2026-05-06 15:42 | 60.87023 | -3.64183 | 46324 ft | 471 kts | 129° |
| 2026-05-06 15:42 | 60.85046 | -3.58872 | 46556 ft | 466 kts | 129° |
| 2026-05-06 15:43 | 60.83090 | -3.53628 | 46812 ft | 461 kts | 129° |
| 2026-05-06 15:43 | 60.81148 | -3.48437 | 47020 ft | 456 kts | 129° |
| 2026-05-06 15:43 | 60.77264 | -3.38086 | 47014 ft | 454 kts | 129° |
| 2026-05-06 15:44 | 60.73389 | -3.27804 | 47020 ft | 452 kts | 129° |
| 2026-05-06 15:44 | 60.71431 | -3.22629 | 46193 ft | 472 kts | 129° |
| 2026-05-06 15:44 | 60.69364 | -3.17187 | 45210 ft | 497 kts | 129° |
| 2026-05-06 15:45 | 60.67231 | -3.11564 | 45095 ft | 502 kts | 129° |
| 2026-05-06 15:45 | 60.65107 | -3.05971 | 45038 ft | 507 kts | 129° |
| 2026-05-06 15:45 | 60.60709 | -2.94485 | 45033 ft | 515 kts | 129° |
| 2026-05-06 15:46 | 60.56295 | -2.82982 | 45030 ft | 515 kts | 129° |
| 2026-05-06 15:46 | 60.51820 | -2.71398 | 45022 ft | 514 kts | 130° |
| 2026-05-06 15:47 | 60.47406 | -2.60020 | 45022 ft | 516 kts | 130° |
| 2026-05-06 15:47 | 60.42864 | -2.48373 | 45026 ft | 518 kts | 130° |
| 2026-05-06 15:48 | 60.38361 | -2.36882 | 45029 ft | 519 kts | 130° |
| 2026-05-06 15:48 | 60.33871 | -2.25482 | 45029 ft | 520 kts | 130° |
| 2026-05-06 15:49 | 60.30108 | -2.15971 | 45031 ft | 522 kts | 130° |
| 2026-05-06 15:49 | 60.25537 | -2.04470 | 45030 ft | 523 kts | 130° |
| 2026-05-06 15:50 | 60.20939 | -1.92956 | 45030 ft | 524 kts | 130° |
| 2026-05-06 15:50 | 60.16338 | -1.81493 | 45033 ft | 524 kts | 131° |
| 2026-05-06 15:51 | 60.11833 | -1.70326 | 45036 ft | 525 kts | 131° |
| 2026-05-06 15:51 | 60.07650 | -1.60004 | 45036 ft | 525 kts | 131° |
| 2026-05-06 15:52 | 60.02982 | -1.48536 | 45040 ft | 526 kts | 131° |
| 2026-05-06 15:52 | 59.98314 | -1.37131 | 45039 ft | 526 kts | 131° |
| 2026-05-06 15:53 | 59.94015 | -1.26672 | 45044 ft | 526 kts | 131° |
| 2026-05-06 15:53 | 59.89356 | -1.15395 | 45044 ft | 526 kts | 131° |
| 2026-05-06 15:54 | 59.84662 | -1.04083 | 45035 ft | 526 kts | 131° |
| 2026-05-06 15:54 | 59.79987 | -0.92874 | 45029 ft | 527 kts | 131° |
| 2026-05-06 15:55 | 59.75281 | -0.81646 | 45026 ft | 527 kts | 132° |
| 2026-05-06 15:55 | 59.71021 | -0.71529 | 45034 ft | 526 kts | 132° |
| 2026-05-06 15:56 | 59.66290 | -0.60343 | 45029 ft | 527 kts | 132° |
| 2026-05-06 15:56 | 59.61546 | -0.49183 | 45042 ft | 527 kts | 132° |
| 2026-05-06 15:57 | 59.56852 | -0.38191 | 45037 ft | 526 kts | 132° |
| 2026-05-06 15:57 | 59.52080 | -0.27072 | 45037 ft | 526 kts | 132° |
| 2026-05-06 15:58 | 59.47291 | -0.15964 | 45041 ft | 525 kts | 133° |
| 2026-05-06 15:58 | 59.42526 | -0.04972 | 45042 ft | 525 kts | 133° |
| 2026-05-06 15:59 | 59.38583 | 0.04096 | 45039 ft | 525 kts | 133° |
| 2026-05-06 15:59 | 59.33864 | 0.14888 | 45043 ft | 525 kts | 133° |
| 2026-05-06 16:00 | 59.29010 | 0.25948 | 45039 ft | 524 kts | 133° |
| 2026-05-06 16:00 | 59.24280 | 0.36668 | 45039 ft | 524 kts | 133° |
| 2026-05-06 16:01 | 59.19442 | 0.47582 | 45048 ft | 524 kts | 133° |
| 2026-05-06 16:01 | 59.14657 | 0.58327 | 45046 ft | 525 kts | 133° |
| 2026-05-06 16:02 | 59.09862 | 0.69046 | 45049 ft | 524 kts | 133° |
| 2026-05-06 16:02 | 59.05041 | 0.79772 | 45050 ft | 524 kts | 133° |
| 2026-05-06 16:03 | 59.00371 | 0.90112 | 45048 ft | 524 kts | 134° |
| 2026-05-06 16:03 | 58.95378 | 1.01120 | 45049 ft | 524 kts | 134° |
| 2026-05-06 16:04 | 58.90520 | 1.11780 | 45005 ft | 523 kts | 133° |
| 2026-05-06 16:04 | 58.85640 | 1.22434 | 45066 ft | 526 kts | 134° |
| 2026-05-06 16:05 | 58.80788 | 1.32988 | 45058 ft | 524 kts | 134° |
| 2026-05-06 16:05 | 58.75942 | 1.43472 | 45053 ft | 522 kts | 134° |
| 2026-05-06 16:06 | 58.71051 | 1.54011 | 45052 ft | 522 kts | 134° |
| 2026-05-06 16:06 | 58.66084 | 1.64660 | 45055 ft | 523 kts | 134° |
| 2026-05-06 16:07 | 58.61309 | 1.74861 | 45052 ft | 522 kts | 134° |
| 2026-05-06 16:07 | 58.56414 | 1.85255 | 45053 ft | 521 kts | 134° |
| 2026-05-06 16:08 | 58.51551 | 1.95549 | 45061 ft | 521 kts | 135° |
| 2026-05-06 16:08 | 58.47466 | 2.04151 | 45060 ft | 521 kts | 135° |
| 2026-05-06 16:09 | 58.42529 | 2.14514 | 45057 ft | 521 kts | 135° |
| 2026-05-06 16:09 | 58.37626 | 2.24755 | 45062 ft | 520 kts | 135° |
| 2026-05-06 16:10 | 58.32834 | 2.34721 | 45057 ft | 520 kts | 135° |
| 2026-05-06 16:10 | 58.27903 | 2.44933 | 45059 ft | 520 kts | 135° |
| 2026-05-06 16:11 | 58.22969 | 2.55104 | 45061 ft | 520 kts | 135° |
| 2026-05-06 16:11 | 58.18049 | 2.65204 | 45059 ft | 521 kts | 135° |
| 2026-05-06 16:12 | 58.13125 | 2.75266 | 45056 ft | 521 kts | 135° |
| 2026-05-06 16:12 | 58.08192 | 2.85303 | 45060 ft | 521 kts | 135° |
| 2026-05-06 16:13 | 58.03248 | 2.95318 | 45060 ft | 521 kts | 135° |
| 2026-05-06 16:13 | 57.98261 | 3.05376 | 45060 ft | 521 kts | 135° |
| 2026-05-06 16:14 | 57.93334 | 3.15272 | 45064 ft | 521 kts | 135° |
| 2026-05-06 16:14 | 57.88341 | 3.25255 | 45051 ft | 521 kts | 136° |
| 2026-05-06 16:15 | 57.83327 | 3.35238 | 45051 ft | 521 kts | 136° |
| 2026-05-06 16:15 | 57.78376 | 3.45052 | 45055 ft | 521 kts | 136° |
| 2026-05-06 16:16 | 57.73386 | 3.54900 | 45044 ft | 521 kts | 136° |
| 2026-05-06 16:16 | 57.68392 | 3.64718 | 45044 ft | 521 kts | 136° |
| 2026-05-06 16:17 | 57.63393 | 3.74501 | 45054 ft | 521 kts | 136° |
| 2026-05-06 16:17 | 57.58385 | 3.84259 | 45052 ft | 520 kts | 136° |
| 2026-05-06 16:18 | 57.53364 | 3.94000 | 45050 ft | 520 kts | 136° |
| 2026-05-06 16:18 | 57.48349 | 4.03693 | 45042 ft | 520 kts | 136° |
| 2026-05-06 16:19 | 57.43333 | 4.13342 | 45048 ft | 519 kts | 136° |
| 2026-05-06 16:19 | 57.38310 | 4.22967 | 45041 ft | 519 kts | 136° |
| 2026-05-06 16:20 | 57.33285 | 4.32556 | 45042 ft | 518 kts | 136° |
| 2026-05-06 16:20 | 57.28284 | 4.42056 | 45037 ft | 518 kts | 136° |
| 2026-05-06 16:21 | 57.23218 | 4.51644 | 45036 ft | 518 kts | 137° |
| 2026-05-06 16:21 | 57.18179 | 4.61138 | 45035 ft | 518 kts | 137° |
| 2026-05-06 16:22 | 57.13161 | 4.70553 | 45028 ft | 518 kts | 137° |
| 2026-05-06 16:22 | 57.08103 | 4.80005 | 45026 ft | 518 kts | 137° |
| 2026-05-06 16:23 | 57.03007 | 4.89489 | 45029 ft | 518 kts | 137° |
| 2026-05-06 16:23 | 56.97969 | 4.98827 | 45031 ft | 518 kts | 137° |
| 2026-05-06 16:24 | 56.92896 | 5.08191 | 45023 ft | 518 kts | 137° |
| 2026-05-06 16:24 | 56.87782 | 5.17592 | 45027 ft | 517 kts | 137° |
| 2026-05-06 16:25 | 56.82699 | 5.26896 | 45017 ft | 517 kts | 137° |
| 2026-05-06 16:25 | 56.77565 | 5.36256 | 45021 ft | 517 kts | 137° |
| 2026-05-06 16:26 | 56.72469 | 5.45510 | 45016 ft | 517 kts | 138° |
| 2026-05-06 16:26 | 56.67361 | 5.54748 | 45014 ft | 517 kts | 138° |
| 2026-05-06 16:27 | 56.62184 | 5.64072 | 45011 ft | 517 kts | 138° |
| 2026-05-06 16:27 | 56.57094 | 5.73204 | 45010 ft | 517 kts | 138° |
| 2026-05-06 16:28 | 56.51937 | 5.82417 | 45004 ft | 517 kts | 138° |
| 2026-05-06 16:28 | 56.47670 | 5.90012 | 45009 ft | 517 kts | 138° |
| 2026-05-06 16:29 | 56.42502 | 5.99179 | 45005 ft | 517 kts | 138° |
| 2026-05-06 16:29 | 56.37363 | 6.08255 | 45004 ft | 517 kts | 138° |
| 2026-05-06 16:30 | 56.33088 | 6.15780 | 45005 ft | 516 kts | 139° |
| 2026-05-06 16:30 | 56.27068 | 6.26331 | 45000 ft | 516 kts | 139° |
| 2026-05-06 16:31 | 56.21872 | 6.35402 | 45000 ft | 516 kts | 139° |
| 2026-05-06 16:31 | 56.16718 | 6.44362 | 44999 ft | 516 kts | 139° |
| 2026-05-06 16:32 | 56.11587 | 6.53247 | 44998 ft | 515 kts | 139° |
| 2026-05-06 16:32 | 56.06375 | 6.62236 | 44991 ft | 516 kts | 139° |
| 2026-05-06 16:33 | 56.01173 | 6.71175 | 44994 ft | 516 kts | 139° |
| 2026-05-06 16:34 | 55.93392 | 6.84479 | 44983 ft | 516 kts | 139° |
| 2026-05-06 16:34 | 55.88240 | 6.93245 | 44977 ft | 516 kts | 139° |
| 2026-05-06 16:35 | 55.82856 | 7.02369 | 44976 ft | 516 kts | 139° |
| 2026-05-06 16:35 | 55.77645 | 7.11166 | 44969 ft | 516 kts | 139° |
| 2026-05-06 16:36 | 55.72389 | 7.20003 | 44967 ft | 516 kts | 139° |
| 2026-05-06 16:36 | 55.67166 | 7.28751 | 44966 ft | 516 kts | 139° |
| 2026-05-06 16:37 | 55.61943 | 7.37467 | 44969 ft | 516 kts | 140° |
| 2026-05-06 16:37 | 55.56716 | 7.46154 | 44959 ft | 516 kts | 140° |
| 2026-05-06 16:38 | 55.51488 | 7.54809 | 44952 ft | 516 kts | 140° |
| 2026-05-06 16:38 | 55.46207 | 7.63521 | 44954 ft | 515 kts | 140° |
| 2026-05-06 16:39 | 55.40968 | 7.72130 | 44951 ft | 515 kts | 140° |
| 2026-05-06 16:39 | 55.35723 | 7.80715 | 44964 ft | 515 kts | 140° |
| 2026-05-06 16:40 | 55.30315 | 7.89533 | 44934 ft | 515 kts | 140° |
| 2026-05-06 16:40 | 55.25767 | 7.96922 | 44940 ft | 514 kts | 140° |
| 2026-05-06 16:41 | 55.20555 | 8.05360 | 44930 ft | 514 kts | 140° |
| 2026-05-06 16:41 | 55.15188 | 8.14017 | 44931 ft | 514 kts | 140° |
| 2026-05-06 16:42 | 55.09915 | 8.22489 | 44925 ft | 514 kts | 140° |
| 2026-05-06 16:42 | 55.04664 | 8.30896 | 44922 ft | 514 kts | 140° |
| 2026-05-06 16:43 | 54.99359 | 8.39356 | 44935 ft | 514 kts | 140° |
| 2026-05-06 16:43 | 54.94073 | 8.47755 | 44932 ft | 514 kts | 140° |
| 2026-05-06 16:44 | 54.88786 | 8.56125 | 44930 ft | 514 kts | 140° |
| 2026-05-06 16:44 | 54.83458 | 8.64528 | 44920 ft | 514 kts | 140° |
| 2026-05-06 16:45 | 54.78132 | 8.72896 | 44912 ft | 514 kts | 140° |
| 2026-05-06 16:45 | 54.72792 | 8.81255 | 44909 ft | 514 kts | 141° |
| 2026-05-06 16:46 | 54.67471 | 8.89554 | 44900 ft | 513 kts | 141° |
| 2026-05-06 16:46 | 54.62077 | 8.97937 | 44897 ft | 507 kts | 141° |
| 2026-05-06 16:47 | 54.56864 | 9.06008 | 44892 ft | 500 kts | 141° |
| 2026-05-06 16:47 | 54.51719 | 9.13942 | 44899 ft | 499 kts | 141° |
| 2026-05-06 16:48 | 54.46460 | 9.22028 | 44899 ft | 500 kts | 141° |
| 2026-05-06 16:48 | 54.41118 | 9.30209 | 44905 ft | 501 kts | 141° |
| 2026-05-06 16:49 | 54.35906 | 9.38160 | 44887 ft | 511 kts | 141° |
| 2026-05-06 16:49 | 54.30573 | 9.46275 | 44896 ft | 514 kts | 141° |
| 2026-05-06 16:50 | 54.25187 | 9.54437 | 44885 ft | 512 kts | 141° |
| 2026-05-06 16:50 | 54.19851 | 9.62490 | 44873 ft | 510 kts | 141° |
| 2026-05-06 16:51 | 54.14525 | 9.70504 | 44875 ft | 510 kts | 141° |
| 2026-05-06 16:51 | 54.10025 | 9.77250 | 44878 ft | 510 kts | 141° |
| 2026-05-06 16:52 | 54.04691 | 9.85222 | 44880 ft | 509 kts | 141° |
| 2026-05-06 16:52 | 53.99348 | 9.93177 | 44880 ft | 510 kts | 141° |
| 2026-05-06 16:53 | 53.93989 | 10.01131 | 44879 ft | 509 kts | 141° |
| 2026-05-06 16:53 | 53.89014 | 10.08488 | 44881 ft | 509 kts | 142° |
| 2026-05-06 16:54 | 53.83634 | 10.16416 | 44875 ft | 509 kts | 142° |
| 2026-05-06 16:54 | 53.78284 | 10.24273 | 44875 ft | 509 kts | 142° |
| 2026-05-06 16:55 | 53.72930 | 10.32109 | 44876 ft | 509 kts | 142° |
| 2026-05-06 16:55 | 53.67565 | 10.39932 | 44872 ft | 509 kts | 142° |
| 2026-05-06 16:56 | 53.62203 | 10.47725 | 44871 ft | 509 kts | 142° |
| 2026-05-06 16:56 | 53.56792 | 10.55565 | 44866 ft | 509 kts | 142° |
| 2026-05-06 16:57 | 53.51308 | 10.63471 | 44860 ft | 509 kts | 142° |
| 2026-05-06 16:57 | 53.45926 | 10.71216 | 44853 ft | 509 kts | 142° |
| 2026-05-06 16:58 | 53.40530 | 10.78946 | 44842 ft | 509 kts | 142° |
| 2026-05-06 16:58 | 53.35064 | 10.86754 | 44842 ft | 510 kts | 142° |
| 2026-05-06 16:59 | 53.30137 | 10.93765 | 44840 ft | 510 kts | 142° |
| 2026-05-06 16:59 | 53.24151 | 11.02257 | 44837 ft | 510 kts | 142° |
| 2026-05-06 17:00 | 53.18719 | 11.09932 | 44829 ft | 510 kts | 142° |
| 2026-05-06 17:00 | 53.13274 | 11.17603 | 44827 ft | 510 kts | 142° |
| 2026-05-06 17:01 | 53.07847 | 11.25218 | 44828 ft | 510 kts | 142° |
| 2026-05-06 17:01 | 53.02386 | 11.32858 | 44823 ft | 509 kts | 142° |
| 2026-05-06 17:02 | 52.96958 | 11.40424 | 44822 ft | 509 kts | 142° |
| 2026-05-06 17:02 | 52.91486 | 11.48027 | 44820 ft | 509 kts | 142° |
| 2026-05-06 17:03 | 52.86886 | 11.54397 | 44816 ft | 509 kts | 142° |
| 2026-05-06 17:03 | 52.81427 | 11.61935 | 44816 ft | 509 kts | 142° |
| 2026-05-06 17:04 | 52.75945 | 11.69477 | 44821 ft | 509 kts | 143° |
| 2026-05-06 17:04 | 52.70462 | 11.76995 | 44826 ft | 510 kts | 143° |
| 2026-05-06 17:05 | 52.64914 | 11.84578 | 44819 ft | 507 kts | 143° |
| 2026-05-06 17:05 | 52.59513 | 11.91932 | 44815 ft | 510 kts | 143° |
| 2026-05-06 17:06 | 52.53965 | 11.99466 | 44819 ft | 509 kts | 143° |
| 2026-05-06 17:06 | 52.48459 | 12.06914 | 44812 ft | 508 kts | 143° |
| 2026-05-06 17:07 | 52.42866 | 12.14456 | 44779 ft | 508 kts | 143° |
| 2026-05-06 17:07 | 52.37376 | 12.21830 | 44177 ft | 519 kts | 143° |
| 2026-05-06 17:07 | 52.34536 | 12.25639 | 43613 ft | 518 kts | 143° |
| 2026-05-06 17:08 | 52.31788 | 12.29321 | 43079 ft | 517 kts | 143° |
| 2026-05-06 17:08 | 52.29000 | 12.33044 | 42549 ft | 516 kts | 143° |
| 2026-05-06 17:08 | 52.26183 | 12.36798 | 42020 ft | 515 kts | 144° |
| 2026-05-06 17:08 | 52.23403 | 12.40500 | 41513 ft | 515 kts | 144° |
| 2026-05-06 17:09 | 52.20629 | 12.44190 | 41016 ft | 514 kts | 144° |
| 2026-05-06 17:09 | 52.17890 | 12.47826 | 40535 ft | 507 kts | 144° |
| 2026-05-06 17:09 | 52.15150 | 12.51457 | 40056 ft | 501 kts | 145° |
| 2026-05-06 17:09 | 52.12459 | 12.55015 | 39572 ft | 495 kts | 145° |
| 2026-05-06 17:10 | 52.09729 | 12.58620 | 39099 ft | 489 kts | 145° |
| 2026-05-06 17:10 | 52.07101 | 12.62087 | 38640 ft | 483 kts | 146° |
| 2026-05-06 17:10 | 52.05344 | 12.64400 | 38303 ft | 480 kts | 146° |
| 2026-05-06 17:10 | 52.02048 | 12.68731 | 37575 ft | 474 kts | 146° |
| 2026-05-06 17:11 | 51.99478 | 12.72106 | 37021 ft | 470 kts | 146° |
| 2026-05-06 17:11 | 51.96959 | 12.75407 | 36484 ft | 467 kts | 146° |
| 2026-05-06 17:11 | 51.95257 | 12.77634 | 36126 ft | 465 kts | 146° |
| 2026-05-06 17:11 | 51.92743 | 12.80918 | 35610 ft | 463 kts | 146° |
| 2026-05-06 17:12 | 51.90230 | 12.84196 | 35106 ft | 463 kts | 147° |
| 2026-05-06 17:12 | 51.87689 | 12.87510 | 34606 ft | 464 kts | 147° |
| 2026-05-06 17:12 | 51.85168 | 12.90791 | 34120 ft | 464 kts | 147° |
| 2026-05-06 17:12 | 51.82658 | 12.94053 | 33629 ft | 465 kts | 147° |
| 2026-05-06 17:13 | 51.80095 | 12.97377 | 33077 ft | 465 kts | 146° |
| 2026-05-06 17:13 | 51.77557 | 13.00667 | 32538 ft | 466 kts | 146° |
| 2026-05-06 17:13 | 51.75037 | 13.03927 | 32018 ft | 466 kts | 146° |
| 2026-05-06 17:13 | 51.72503 | 13.07199 | 31501 ft | 467 kts | 146° |
| 2026-05-06 17:14 | 51.69937 | 13.10510 | 31000 ft | 468 kts | 146° |
| 2026-05-06 17:14 | 51.67305 | 13.13900 | 30491 ft | 469 kts | 145° |
| 2026-05-06 17:14 | 51.64798 | 13.17123 | 30019 ft | 469 kts | 145° |
| 2026-05-06 17:14 | 51.62175 | 13.20492 | 29480 ft | 471 kts | 145° |
| 2026-05-06 17:15 | 51.59661 | 13.23716 | 28938 ft | 473 kts | 145° |
| 2026-05-06 17:15 | 51.56982 | 13.27147 | 28373 ft | 473 kts | 145° |
| 2026-05-06 17:15 | 51.54337 | 13.30526 | 27825 ft | 474 kts | 145° |
| 2026-05-06 17:15 | 51.51741 | 13.33842 | 27782 ft | 467 kts | 145° |
| 2026-05-06 17:16 | 51.49237 | 13.37034 | 27788 ft | 465 kts | 145° |
| 2026-05-06 17:16 | 51.46744 | 13.40212 | 27779 ft | 450 kts | 145° |
| 2026-05-06 17:16 | 51.44241 | 13.43389 | 27735 ft | 452 kts | 146° |
| 2026-05-06 17:16 | 51.41707 | 13.46592 | 27448 ft | 458 kts | 145° |
| 2026-05-06 17:17 | 51.39211 | 13.49764 | 27186 ft | 455 kts | 145° |
| 2026-05-06 17:17 | 51.37284 | 13.52210 | 26977 ft | 456 kts | 145° |
| 2026-05-06 17:17 | 51.34148 | 13.56161 | 26651 ft | 458 kts | 145° |
| 2026-05-06 17:17 | 51.31624 | 13.59346 | 26390 ft | 458 kts | 145° |
| 2026-05-06 17:18 | 51.29135 | 13.62489 | 26136 ft | 459 kts | 145° |
| 2026-05-06 17:18 | 51.26559 | 13.65724 | 25610 ft | 463 kts | 145° |
| 2026-05-06 17:18 | 51.24021 | 13.68910 | 25121 ft | 464 kts | 145° |
| 2026-05-06 17:18 | 51.21477 | 13.72107 | 24638 ft | 464 kts | 145° |
| 2026-05-06 17:19 | 51.19789 | 13.74223 | 24330 ft | 464 kts | 145° |
| 2026-05-06 17:19 | 51.17214 | 13.77441 | 23857 ft | 465 kts | 145° |
| 2026-05-06 17:19 | 51.14619 | 13.80682 | 23384 ft | 466 kts | 145° |
| 2026-05-06 17:19 | 51.12008 | 13.83944 | 22849 ft | 467 kts | 145° |
| 2026-05-06 17:20 | 51.09451 | 13.87128 | 22310 ft | 468 kts | 145° |
| 2026-05-06 17:20 | 51.06877 | 13.90328 | 21784 ft | 469 kts | 145° |
| 2026-05-06 17:20 | 51.04303 | 13.93526 | 21275 ft | 470 kts | 144° |
| 2026-05-06 17:20 | 51.01711 | 13.96746 | 20756 ft | 471 kts | 144° |
| 2026-05-06 17:21 | 50.99130 | 13.99942 | 20272 ft | 473 kts | 144° |
| 2026-05-06 17:21 | 50.96285 | 14.03451 | 19721 ft | 474 kts | 144° |
| 2026-05-06 17:21 | 50.93884 | 14.06423 | 19286 ft | 475 kts | 144° |
| 2026-05-06 17:21 | 50.91182 | 14.09765 | 18796 ft | 476 kts | 144° |
| 2026-05-06 17:22 | 50.88554 | 14.12988 | 18326 ft | 478 kts | 144° |
| 2026-05-06 17:22 | 50.85919 | 14.16218 | 17840 ft | 479 kts | 144° |
| 2026-05-06 17:22 | 50.83253 | 14.19509 | 17296 ft | 480 kts | 144° |
| 2026-05-06 17:22 | 50.80621 | 14.22748 | 16797 ft | 478 kts | 144° |
| 2026-05-06 17:23 | 50.77991 | 14.25944 | 16754 ft | 477 kts | 144° |
| 2026-05-06 17:23 | 50.75269 | 14.29263 | 16748 ft | 479 kts | 144° |
| 2026-05-06 17:23 | 50.72442 | 14.32739 | 16754 ft | 478 kts | 144° |
| 2026-05-06 17:23 | 50.69962 | 14.35765 | 16754 ft | 478 kts | 144° |
| 2026-05-06 17:24 | 50.67315 | 14.38929 | 16407 ft | 465 kts | 147° |
| 2026-05-06 17:24 | 50.64282 | 14.41499 | 15808 ft | 444 kts | 160° |
| 2026-05-06 17:24 | 50.61650 | 14.42820 | 15340 ft | 430 kts | 167° |
| 2026-05-06 17:24 | 50.58771 | 14.43846 | 14833 ft | 416 kts | 170° |
| 2026-05-06 17:25 | 50.55891 | 14.44876 | 14336 ft | 408 kts | 167° |
| 2026-05-06 17:25 | 50.53195 | 14.46114 | 13859 ft | 403 kts | 165° |
| 2026-05-06 17:25 | 50.50392 | 14.47416 | 13341 ft | 398 kts | 167° |
| 2026-05-06 17:25 | 50.47810 | 14.48419 | 12825 ft | 394 kts | 168° |
| 2026-05-06 17:26 | 50.45062 | 14.49493 | 12289 ft | 391 kts | 167° |
| 2026-05-06 17:26 | 50.42483 | 14.50651 | 11852 ft | 388 kts | 166° |
| 2026-05-06 17:26 | 50.40601 | 14.51496 | 11481 ft | 384 kts | 167° |
| 2026-05-06 17:26 | 50.38074 | 14.52524 | 10985 ft | 380 kts | 168° |
| 2026-05-06 17:27 | 50.36020 | 14.53331 | 10591 ft | 378 kts | 168° |
| 2026-05-06 17:27 | 50.33489 | 14.54406 | 10114 ft | 376 kts | 167° |
| 2026-05-06 17:27 | 50.30827 | 14.55571 | 9754 ft | 366 kts | 167° |
| 2026-05-06 17:27 | 50.28529 | 14.56514 | 9753 ft | 345 kts | 168° |
| 2026-05-06 17:28 | 50.26270 | 14.57436 | 9738 ft | 325 kts | 168° |
| 2026-05-06 17:28 | 50.24133 | 14.58343 | 9737 ft | 308 kts | 168° |
| 2026-05-06 17:28 | 50.22101 | 14.59193 | 9736 ft | 300 kts | 168° |
| 2026-05-06 17:28 | 50.20165 | 14.59990 | 9740 ft | 296 kts | 168° |
| 2026-05-06 17:29 | 50.18161 | 14.60824 | 9738 ft | 297 kts | 168° |
| 2026-05-06 17:29 | 50.15874 | 14.62486 | 9735 ft | 304 kts | 146° |
| 2026-05-06 17:29 | 50.14544 | 14.64434 | 9449 ft | 315 kts | 137° |
| 2026-05-06 17:29 | 50.12996 | 14.67062 | 8938 ft | 322 kts | 135° |
| 2026-05-06 17:30 | 50.11538 | 14.69590 | 8757 ft | 313 kts | 135° |
| 2026-05-06 17:30 | 50.10104 | 14.72095 | 8746 ft | 306 kts | 135° |
| 2026-05-06 17:30 | 50.08699 | 14.74571 | 8738 ft | 295 kts | 135° |
| 2026-05-06 17:30 | 50.07365 | 14.76935 | 8736 ft | 278 kts | 135° |
| 2026-05-06 17:31 | 50.06126 | 14.79152 | 8736 ft | 263 kts | 135° |
| 2026-05-06 17:31 | 50.04922 | 14.81319 | 8737 ft | 255 kts | 135° |
| 2026-05-06 17:31 | 50.03754 | 14.83426 | 8737 ft | 252 kts | 135° |
| 2026-05-06 17:31 | 50.02981 | 14.84820 | 8738 ft | 251 kts | 135° |
| 2026-05-06 17:32 | 50.01384 | 14.87471 | 8732 ft | 246 kts | 146° |
| 2026-05-06 17:32 | 49.99937 | 14.88886 | 8729 ft | 243 kts | 155° |
| 2026-05-06 17:32 | 49.98379 | 14.90209 | 8262 ft | 258 kts | 155° |
| 2026-05-06 17:32 | 49.97296 | 14.91100 | 7930 ft | 260 kts | 158° |
| 2026-05-06 17:33 | 49.95550 | 14.91691 | 7402 ft | 260 kts | 184° |
| 2026-05-06 17:33 | 49.93836 | 14.90867 | 6908 ft | 263 kts | 211° |
| 2026-05-06 17:33 | 49.92556 | 14.88762 | 6411 ft | 269 kts | 236° |
| 2026-05-06 17:33 | 49.91772 | 14.86126 | 5941 ft | 274 kts | 250° |
| 2026-05-06 17:34 | 49.91587 | 14.83149 | 5420 ft | 281 kts | 270° |
| 2026-05-06 17:34 | 49.91780 | 14.80078 | 4949 ft | 284 kts | 275° |
| 2026-05-06 17:34 | 49.92014 | 14.77018 | 4461 ft | 286 kts | 275° |
| 2026-05-06 17:34 | 49.92209 | 14.74400 | 4039 ft | 287 kts | 275° |
| 2026-05-06 17:35 | 49.92430 | 14.71223 | 3536 ft | 289 kts | 275° |
| 2026-05-06 17:35 | 49.92578 | 14.68921 | 3173 ft | 291 kts | 275° |
| 2026-05-06 17:35 | 49.92817 | 14.64771 | 2688 ft | 269 kts | 275° |
| 2026-05-06 17:36 | 49.93737 | 14.59644 | 2714 ft | 231 kts | 307° |
| 2026-05-06 17:36 | 49.94694 | 14.57734 | 2715 ft | 221 kts | 308° |
| 2026-05-06 17:36 | 49.95598 | 14.55821 | 2718 ft | 218 kts | 307° |
| 2026-05-06 17:36 | 49.96518 | 14.53927 | 2727 ft | 215 kts | 309° |
| 2026-05-06 17:37 | 49.97408 | 14.52140 | 2715 ft | 202 kts | 308° |
| 2026-05-06 17:37 | 49.98213 | 14.50444 | 2713 ft | 187 kts | 308° |
| 2026-05-06 17:37 | 49.98983 | 14.48905 | 2707 ft | 177 kts | 309° |
| 2026-05-06 17:37 | 49.99716 | 14.47368 | 2715 ft | 173 kts | 307° |
| 2026-05-06 17:38 | 50.00461 | 14.45845 | 2718 ft | 172 kts | 309° |
| 2026-05-06 17:38 | 50.00943 | 14.44879 | 2723 ft | 167 kts | 308° |
| 2026-05-06 17:38 | 50.01855 | 14.42959 | 2710 ft | 169 kts | 308° |
| 2026-05-06 17:38 | 50.02556 | 14.41561 | 2725 ft | 165 kts | 308° |
| 2026-05-06 17:39 | 50.03226 | 14.40140 | 2743 ft | 166 kts | 307° |
| 2026-05-06 17:39 | 50.03932 | 14.38705 | 2731 ft | 166 kts | 309° |
| 2026-05-06 17:39 | 50.04636 | 14.37266 | 2722 ft | 165 kts | 306° |
| 2026-05-06 17:39 | 50.05327 | 14.35806 | 2515 ft | 163 kts | 308° |
| 2026-05-06 17:40 | 50.05776 | 14.34919 | 2413 ft | 150 kts | 309° |
| 2026-05-06 17:40 | 50.06389 | 14.33634 | 2186 ft | 146 kts | 308° |
| 2026-05-06 17:40 | 50.07010 | 14.32365 | 1975 ft | 145 kts | 309° |
| 2026-05-06 17:40 | 50.07625 | 14.31093 | 1779 ft | 145 kts | 307° |
| 2026-05-06 17:41 | 50.08237 | 14.29820 | 1534 ft | 149 kts | 308° |
| 2026-05-06 17:41 | 50.08888 | 14.28485 | 1322 ft | 148 kts | 308° |
| 2026-05-06 17:41 | 50.09550 | 14.27130 | 1206 ft | 130 kts | 306° |
| 2026-05-06 17:41 | 50.09981 | 14.26242 | 1194 ft | 85 kts | 304° |
| 2026-05-06 17:42 | 50.10258 | 14.25715 | 1186 ft | 35 kts | 330° |
| 2026-05-06 17:42 | 50.10415 | 14.25661 | 1181 ft | 0 kts | 6° |
| 2026-05-06 17:43 | 50.10456 | 14.25668 | 1180 ft | 8 kts | 10° |
| 2026-05-06 17:44 | 50.10487 | 14.25746 | 1177 ft | 10 kts | 79° |
| 2026-05-06 17:44 | 50.10499 | 14.25849 | 1175 ft | 14 kts | 80° |
| 2026-05-06 17:44 | 50.10499 | 14.25980 | 1171 ft | 7 kts | 120° |
| 2026-05-06 17:44 | 50.10493 | 14.25995 | 1172 ft | 0 kts | 126° |
| 2026-05-06 17:45 | 50.10489 | 14.26003 | 1173 ft | 4 kts | 128° |
| 2026-05-06 17:45 | 50.10460 | 14.26059 | 1173 ft | 7 kts | 128° |
| 2026-05-06 17:45 | 50.10423 | 14.26135 | 1171 ft | 11 kts | 127° |
| 2026-05-06 17:45 | 50.10379 | 14.26227 | 1171 ft | 12 kts | 127° |
| 2026-05-06 17:46 | 50.10329 | 14.26328 | 1175 ft | 11 kts | 128° |
| 2026-05-06 17:46 | 50.10299 | 14.26390 | 1175 ft | 10 kts | 126° |
| 2026-05-06 17:46 | 50.10246 | 14.26501 | 1174 ft | 13 kts | 127° |
| 2026-05-06 17:46 | 50.10184 | 14.26630 | 1176 ft | 18 kts | 127° |
| 2026-05-06 17:47 | 50.10128 | 14.26746 | 1180 ft | 15 kts | 126° |
| 2026-05-06 17:47 | 50.10048 | 14.26910 | 1190 ft | 12 kts | 127° |
| 2026-05-06 17:47 | 50.09994 | 14.27024 | 1195 ft | 14 kts | 129° |
| 2026-05-06 17:47 | 50.09918 | 14.27177 | 1199 ft | 16 kts | 124° |
| 2026-05-06 17:48 | 50.09896 | 14.27225 | 1200 ft | 19 kts | 127° |
| 2026-05-06 17:48 | 50.09772 | 14.27435 | 1203 ft | 18 kts | 135° |
| 2026-05-06 17:48 | 50.09690 | 14.27563 | 1205 ft | 15 kts | 136° |
| 2026-05-06 17:48 | 50.09645 | 14.27682 | 1207 ft | 10 kts | 53° |
| 2026-05-06 17:49 | 50.09689 | 14.27772 | 1205 ft | 11 kts | 79° |
| 2026-05-06 17:49 | 50.09705 | 14.27888 | 1207 ft | 10 kts | 78° |
| 2026-05-06 17:49 | 50.09713 | 14.27948 | 1210 ft | 9 kts | 78° |
| 2026-05-06 17:49 | 50.09731 | 14.28088 | 1210 ft | 17 kts | 78° |
| 2026-05-06 17:50 | 50.09756 | 14.28280 | 1210 ft | 16 kts | 78° |
| 2026-05-06 17:50 | 50.09780 | 14.28432 | 1210 ft | 12 kts | 54° |
| 2026-05-06 17:50 | 50.09827 | 14.28451 | 1210 ft | 10 kts | 352° |
| 2026-05-06 17:50 | 50.09908 | 14.28465 | 1210 ft | 9 kts | 13° |
| 2026-05-06 17:51 | 50.09952 | 14.28518 | 1210 ft | 8 kts | 56° |
| 2026-05-06 17:51 | 50.09927 | 14.28556 | 1210 ft | 0 kts | 190° |